createdAt,value
2019-01-13T00:04:39.730Z,1.10
2019-01-13T00:07:20.361Z,1.10
2019-01-13T00:10:00.927Z,1.10
2019-01-13T00:12:42.088Z,1.10
2019-01-13T00:15:23.015Z,1.10
2019-01-13T00:18:03.914Z,1.10
2019-01-13T00:20:45.729Z,1.10
2019-01-13T00:23:27.231Z,1.10
2019-01-13T00:26:08.283Z,1.10
2019-01-13T00:28:49.154Z,1.10
2019-01-13T00:31:30.168Z,1.10
2019-01-13T00:34:10.975Z,1.10
2019-01-13T00:36:51.820Z,1.10
2019-01-13T00:39:32.413Z,1.10
2019-01-13T00:42:13.785Z,1.10
2019-01-13T00:44:54.426Z,1.10
2019-01-13T00:47:35.466Z,1.10
2019-01-13T00:50:16.304Z,1.10
2019-01-13T00:52:57.523Z,1.10
2019-01-13T00:55:38.004Z,1.10
2019-01-13T00:58:19.471Z,1.10
2019-01-13T01:01:00.872Z,1.10
2019-01-13T01:03:41.890Z,1.10
2019-01-13T01:06:23.507Z,1.10
2019-01-13T01:09:05.161Z,1.00
2019-01-13T01:11:46.888Z,1.00
2019-01-13T01:14:28.433Z,1.00
2019-01-13T01:17:09.736Z,1.00
2019-01-13T01:19:50.292Z,1.00
2019-01-13T01:22:31.637Z,1.00
2019-01-13T01:25:12.696Z,1.00
2019-01-13T01:27:54.131Z,1.00
2019-01-13T01:30:36.064Z,1.00
2019-01-13T01:33:25.716Z,1.00
2019-01-13T01:36:01.260Z,1.00
2019-01-13T01:38:42.335Z,0.90
2019-01-13T01:41:23.697Z,0.90
2019-01-13T01:44:04.603Z,0.90
2019-01-13T01:46:45.899Z,0.90
2019-01-13T01:49:26.823Z,0.90
2019-01-13T01:52:07.807Z,0.90
2019-01-13T01:54:49.849Z,0.90
2019-01-13T01:57:31.470Z,0.90
2019-01-13T02:00:13.424Z,0.90
2019-01-13T02:02:54.739Z,0.90
2019-01-13T02:05:35.926Z,0.80
2019-01-13T02:08:17.460Z,0.80
2019-01-13T02:10:57.127Z,0.80
2019-01-13T02:13:38.180Z,0.80
2019-01-13T02:16:19.972Z,0.80
2019-01-13T02:19:01.268Z,0.80
2019-01-13T02:21:42.927Z,0.80
2019-01-13T02:24:22.588Z,0.80
2019-01-13T02:27:03.544Z,0.80
2019-01-13T02:29:44.911Z,0.80
2019-01-13T02:32:26.339Z,0.80
2019-01-13T02:35:07.236Z,0.80
2019-01-13T02:37:47.749Z,0.80
2019-01-13T02:40:28.387Z,0.80
2019-01-13T02:43:09.377Z,0.80
2019-01-13T02:45:50.279Z,0.80
2019-01-13T02:48:31.606Z,0.80
2019-01-13T02:51:12.690Z,0.80
2019-01-13T02:53:54.425Z,0.80
2019-01-13T02:56:35.627Z,0.80
2019-01-13T02:59:16.460Z,0.80
2019-01-13T03:01:57.316Z,0.80
2019-01-13T03:04:37.956Z,0.80
2019-01-13T03:07:19.280Z,0.80
2019-01-13T03:10:00.983Z,0.80
2019-01-13T03:12:42.194Z,0.80
2019-01-13T03:15:23.441Z,0.80
2019-01-13T03:18:05.056Z,0.80
2019-01-13T03:20:46.238Z,0.80
2019-01-13T03:23:26.907Z,0.80
2019-01-13T03:26:07.388Z,0.80
2019-01-13T03:28:49.010Z,0.80
2019-01-13T03:31:30.009Z,0.90
2019-01-13T03:34:11.356Z,0.90
2019-01-13T03:36:51.895Z,0.90
2019-01-13T03:39:32.988Z,0.90
2019-01-13T03:42:13.664Z,0.90
2019-01-13T03:44:53.539Z,0.90
2019-01-13T03:47:34.769Z,0.90
2019-01-13T03:50:16.223Z,0.90
2019-01-13T03:52:56.869Z,0.90
2019-01-13T03:55:37.837Z,0.90
2019-01-13T03:58:19.292Z,0.90
2019-01-13T04:01:00.412Z,0.90
2019-01-13T04:03:40.068Z,0.90
2019-01-13T04:06:21.470Z,0.90
2019-01-13T04:09:03.296Z,0.90
2019-01-13T04:11:44.806Z,0.90
2019-01-13T04:14:26.484Z,1.00
2019-01-13T04:17:07.875Z,1.00
2019-01-13T04:19:48.849Z,1.00
2019-01-13T04:22:29.736Z,1.00
2019-01-13T04:25:11.233Z,1.00
2019-01-13T04:27:51.110Z,1.00
2019-01-13T04:30:32.388Z,1.00
2019-01-13T04:33:13.743Z,1.00
2019-01-13T04:35:54.640Z,1.00
2019-01-13T04:38:35.150Z,1.00
2019-01-13T04:41:16.846Z,1.00
2019-01-13T04:43:58.363Z,1.00
2019-01-13T04:46:39.958Z,1.00
2019-01-13T04:49:21.555Z,1.00
2019-01-13T04:52:02.148Z,1.00
2019-01-13T04:54:43.635Z,1.00
2019-01-13T04:57:23.356Z,1.00
2019-01-13T05:00:04.289Z,1.00
2019-01-13T05:02:46.019Z,1.00
2019-01-13T05:05:27.177Z,1.00
2019-01-13T05:08:08.064Z,1.00
2019-01-13T05:10:49.661Z,1.00
2019-01-13T05:13:30.695Z,1.00
2019-01-13T05:16:11.330Z,1.00
2019-01-13T05:18:52.276Z,1.00
2019-01-13T05:21:33.104Z,1.00
2019-01-13T05:24:14.318Z,1.00
2019-01-13T05:26:55.936Z,1.00
2019-01-13T05:29:37.492Z,1.00
2019-01-13T05:32:19.163Z,1.00
2019-01-13T05:35:00.498Z,1.00
2019-01-13T05:37:41.671Z,1.00
2019-01-13T05:40:22.579Z,1.00
2019-01-13T05:43:04.018Z,0.90
2019-01-13T05:45:45.921Z,0.90
2019-01-13T05:48:26.950Z,0.90
2019-01-13T05:51:08.046Z,0.90
2019-01-13T05:53:49.452Z,0.90
2019-01-13T05:56:31.359Z,0.90
2019-01-13T05:59:12.832Z,0.90
2019-01-13T06:01:54.197Z,0.90
2019-01-13T06:04:35.004Z,0.90
2019-01-13T06:07:16.506Z,0.90
2019-01-13T06:09:56.180Z,0.90
2019-01-13T06:12:36.652Z,0.90
2019-01-13T06:15:18.077Z,0.80
2019-01-13T06:17:59.185Z,0.80
2019-01-13T06:20:39.742Z,0.80
2019-01-13T06:23:20.453Z,0.80
2019-01-13T06:26:01.729Z,0.80
2019-01-13T06:28:43.140Z,0.80
2019-01-13T06:31:24.145Z,0.80
2019-01-13T06:34:04.847Z,0.80
2019-01-13T06:36:46.078Z,0.80
2019-01-13T06:39:27.345Z,0.80
2019-01-13T06:42:08.806Z,0.80
2019-01-13T06:44:49.835Z,0.80
2019-01-13T06:47:30.842Z,0.90
2019-01-13T06:50:12.335Z,0.90
2019-01-13T06:52:52.997Z,0.90
2019-01-13T06:55:33.619Z,0.90
2019-01-13T06:58:15.019Z,0.90
2019-01-13T07:00:56.581Z,0.90
2019-01-13T07:03:37.684Z,0.90
2019-01-13T07:06:18.303Z,1.00
2019-01-13T07:08:59.349Z,1.00
2019-01-13T07:11:40.638Z,1.00
2019-01-13T07:14:21.762Z,1.00
2019-01-13T07:17:02.798Z,1.00
2019-01-13T07:19:43.931Z,1.10
2019-01-13T07:22:25.703Z,1.10
2019-01-13T07:25:06.772Z,1.10
2019-01-13T07:27:47.838Z,1.10
2019-01-13T07:30:29.299Z,1.10
2019-01-13T07:33:10.968Z,1.10
2019-01-13T07:35:52.496Z,1.10
2019-01-13T07:38:33.867Z,1.10
2019-01-13T07:41:15.047Z,1.20
2019-01-13T07:43:56.163Z,1.20
2019-01-13T07:46:37.599Z,1.20
2019-01-13T07:49:18.955Z,1.30
2019-01-13T07:52:00.314Z,1.30
2019-01-13T07:54:41.671Z,1.30
2019-01-13T07:57:22.285Z,1.40
2019-01-13T08:00:03.692Z,1.40
2019-01-13T08:02:44.508Z,1.40
2019-01-13T08:05:25.954Z,1.40
2019-01-13T08:08:07.294Z,1.40
2019-01-13T08:10:46.970Z,1.50
2019-01-13T08:13:35.742Z,1.50
2019-01-13T08:16:17.194Z,1.50
2019-01-13T08:18:58.340Z,1.50
2019-01-13T08:21:40.199Z,1.50
2019-01-13T08:24:21.652Z,1.50
2019-01-13T08:27:01.653Z,1.50
2019-01-13T08:32:51.346Z,1.40
2019-01-13T08:35:32.915Z,1.40
2019-01-13T08:38:14.549Z,1.40
2019-01-13T08:40:55.187Z,1.30
2019-01-13T08:43:36.833Z,1.30
2019-01-13T08:46:16.376Z,1.30
2019-01-13T08:48:57.527Z,1.40
2019-01-13T08:51:38.621Z,1.40
2019-01-13T08:54:19.484Z,1.50
2019-01-13T08:57:00.760Z,1.50
2019-01-13T08:59:42.075Z,1.50
2019-01-13T09:02:23.620Z,1.50
2019-01-13T09:05:05.186Z,1.50
2019-01-13T09:07:46.651Z,1.50
2019-01-13T09:10:28.454Z,1.60
2019-01-13T09:13:11.001Z,1.60
2019-01-13T09:15:52.690Z,1.60
2019-01-13T09:18:33.088Z,1.70
2019-01-13T09:21:22.064Z,1.70
2019-01-13T09:24:03.470Z,1.70
2019-01-13T09:26:50.964Z,1.70
2019-01-13T09:29:26.043Z,1.70
2019-01-13T09:35:14.630Z,1.70
2019-01-13T09:37:56.073Z,1.80
2019-01-13T09:40:37.111Z,1.80
2019-01-13T09:43:18.020Z,1.90
2019-01-13T09:45:59.199Z,1.90
2019-01-13T09:48:40.498Z,2.00
2019-01-13T09:51:21.971Z,2.00
2019-01-13T09:54:03.060Z,2.00
2019-01-13T09:56:44.537Z,2.00
2019-01-13T09:59:25.787Z,2.00
2019-01-13T10:02:06.442Z,2.00
2019-01-13T10:04:47.073Z,2.00
2019-01-13T10:07:28.949Z,2.00
2019-01-13T10:10:09.921Z,2.00
2019-01-13T10:12:49.742Z,2.10
2019-01-13T10:18:39.088Z,2.10
2019-01-13T10:21:20.877Z,2.10
2019-01-13T10:24:01.811Z,2.10
2019-01-13T10:26:43.221Z,2.10
2019-01-13T10:29:24.173Z,2.10
2019-01-13T10:32:05.145Z,2.10
2019-01-13T10:34:46.277Z,2.10
2019-01-13T10:37:27.945Z,2.10
2019-01-13T10:40:08.746Z,2.00
2019-01-13T10:42:57.020Z,2.00
2019-01-13T10:45:38.240Z,2.10
2019-01-13T10:48:18.992Z,2.10
2019-01-13T10:51:00.226Z,2.10
2019-01-13T10:53:41.225Z,2.10
2019-01-13T10:56:22.584Z,2.10
2019-01-13T10:59:04.162Z,2.10
2019-01-13T11:01:45.506Z,2.10
2019-01-13T11:04:26.709Z,2.20
2019-01-13T11:07:07.817Z,2.20
2019-01-13T11:09:49.460Z,2.20
2019-01-13T11:12:31.259Z,2.20
2019-01-13T11:15:11.860Z,2.30
2019-01-13T11:17:52.828Z,2.30
2019-01-13T11:20:33.925Z,2.30
2019-01-13T11:23:14.913Z,2.30
2019-01-13T11:25:56.237Z,2.30
2019-01-13T11:28:37.901Z,2.30
2019-01-13T11:31:19.147Z,2.30
2019-01-13T11:33:59.859Z,2.30
2019-01-13T11:36:40.756Z,2.30
2019-01-13T11:39:22.161Z,2.30
2019-01-13T11:42:03.603Z,2.30
2019-01-13T11:44:45.303Z,2.30
2019-01-13T11:47:26.664Z,2.30
2019-01-13T11:50:07.781Z,2.30
2019-01-13T11:52:48.666Z,2.40
2019-01-13T11:55:29.511Z,2.40
2019-01-13T11:58:09.264Z,2.40
2019-01-13T12:00:50.176Z,2.30
2019-01-13T12:03:31.693Z,2.30
2019-01-13T12:06:11.132Z,2.30
2019-01-13T12:08:59.748Z,2.40
2019-01-13T12:11:40.919Z,2.50
2019-01-13T12:14:21.731Z,2.50
2019-01-13T12:17:01.456Z,2.50
2019-01-13T12:19:49.715Z,2.50
2019-01-13T12:22:29.336Z,2.50
2019-01-13T12:25:09.873Z,2.60
2019-01-13T12:27:51.068Z,2.60
2019-01-13T12:30:32.354Z,2.60
2019-01-13T12:33:11.775Z,2.50
2019-01-13T12:36:00.723Z,2.50
2019-01-13T12:38:42.278Z,2.50
2019-01-13T12:41:23.406Z,2.50
2019-01-13T12:44:03.074Z,2.50
2019-01-13T12:46:43.540Z,2.50
2019-01-13T12:49:24.955Z,2.50
2019-01-13T12:52:05.739Z,2.50
2019-01-13T12:54:47.221Z,2.60
2019-01-13T12:57:29.027Z,2.60
2019-01-13T13:00:10.465Z,2.70
2019-01-13T13:02:51.903Z,2.60
2019-01-13T13:05:33.228Z,2.70
2019-01-13T13:08:12.890Z,2.70
2019-01-13T13:11:01.232Z,2.60
2019-01-13T13:13:42.975Z,2.70
2019-01-13T13:16:25.062Z,2.60
2019-01-13T13:19:06.259Z,2.70
2019-01-13T13:21:45.878Z,2.70
2019-01-13T13:24:27.097Z,2.70
2019-01-13T13:27:08.509Z,2.70
2019-01-13T13:29:49.916Z,2.70
2019-01-13T13:32:31.155Z,2.70
2019-01-13T13:35:11.067Z,2.70
2019-01-13T13:37:59.880Z,2.70
2019-01-13T13:40:40.791Z,2.70
2019-01-13T13:43:22.192Z,2.70
2019-01-13T13:46:03.969Z,2.60
2019-01-13T13:48:45.146Z,2.60
2019-01-13T13:51:26.621Z,2.60
2019-01-13T13:54:08.516Z,2.60
2019-01-13T13:56:49.670Z,2.60
2019-01-13T13:59:30.400Z,2.60
2019-01-13T14:02:11.932Z,2.60
2019-01-13T14:04:53.372Z,2.50
2019-01-13T14:07:35.018Z,2.50
2019-01-13T14:10:16.218Z,2.50
2019-01-13T14:12:57.198Z,2.50
2019-01-13T14:15:38.453Z,2.50
2019-01-13T14:18:20.050Z,2.50
2019-01-13T14:21:00.729Z,2.50
2019-01-13T14:23:41.554Z,2.50
2019-01-13T14:26:21.603Z,2.50
2019-01-13T14:29:02.778Z,2.50
2019-01-13T14:31:44.164Z,2.50
2019-01-13T14:34:25.891Z,2.50
2019-01-13T14:37:06.832Z,2.50
2019-01-13T14:39:49.021Z,2.50
2019-01-13T14:42:29.981Z,2.40
2019-01-13T14:45:11.591Z,2.40
2019-01-13T14:47:52.706Z,2.50
2019-01-13T14:50:34.009Z,2.50
2019-01-13T14:53:15.017Z,2.50
2019-01-13T14:55:56.322Z,2.40
2019-01-13T14:58:37.970Z,2.40
2019-01-13T15:01:18.016Z,2.40
2019-01-13T15:04:00.124Z,2.40
2019-01-13T15:06:40.629Z,2.40
2019-01-13T15:09:30.179Z,2.40
2019-01-13T15:12:11.205Z,2.40
2019-01-13T15:14:50.603Z,2.40
2019-01-13T15:17:39.216Z,2.40
2019-01-13T15:20:21.060Z,2.40
2019-01-13T15:23:02.536Z,2.40
2019-01-13T15:25:43.435Z,2.40
2019-01-13T15:28:22.869Z,2.40
2019-01-13T15:31:04.641Z,2.40
2019-01-13T15:33:46.072Z,2.50
2019-01-13T15:36:27.822Z,2.50
2019-01-13T15:39:09.505Z,2.50
2019-01-13T15:41:50.803Z,2.50
2019-01-13T15:44:32.387Z,2.50
2019-01-13T15:47:14.219Z,2.50
2019-01-13T15:49:55.697Z,2.50
2019-01-13T15:52:36.892Z,2.50
2019-01-13T15:55:18.700Z,2.50
2019-01-13T15:57:59.796Z,2.50
2019-01-13T16:00:40.606Z,2.50
2019-01-13T16:03:22.030Z,2.50
2019-01-13T16:06:03.376Z,2.60
2019-01-13T16:08:44.683Z,2.50
2019-01-13T16:11:26.325Z,2.50
2019-01-13T16:14:07.872Z,2.50
2019-01-13T16:16:49.117Z,2.50
2019-01-13T16:19:30.980Z,2.60
2019-01-13T16:22:12.001Z,2.50
2019-01-13T16:24:53.223Z,2.60
2019-01-13T16:27:34.014Z,2.50
2019-01-13T16:30:14.790Z,2.50
2019-01-13T16:32:56.390Z,2.50
2019-01-13T16:35:38.262Z,2.50
2019-01-13T16:38:19.853Z,2.50
2019-01-13T16:41:01.075Z,2.50
2019-01-13T16:43:42.442Z,2.40
2019-01-13T16:46:24.380Z,2.40
2019-01-13T16:49:06.270Z,2.50
2019-01-13T16:51:47.354Z,2.40
2019-01-13T16:54:28.902Z,2.50
2019-01-13T16:57:09.666Z,2.40
2019-01-13T16:59:51.067Z,2.40
2019-01-13T17:02:33.157Z,2.40
2019-01-13T17:05:14.257Z,2.40
2019-01-13T17:07:55.585Z,2.40
2019-01-13T17:10:36.205Z,2.40
2019-01-13T17:13:16.808Z,2.40
2019-01-13T17:15:58.058Z,2.40
2019-01-13T17:18:39.165Z,2.40
2019-01-13T17:21:20.068Z,2.30
2019-01-13T17:24:01.713Z,2.30
2019-01-13T17:26:42.390Z,2.30
2019-01-13T17:29:24.109Z,2.30
2019-01-13T17:32:05.650Z,2.30
2019-01-13T17:34:46.831Z,2.30
2019-01-13T17:37:26.707Z,2.30
2019-01-13T17:40:15.988Z,2.20
2019-01-13T17:42:57.197Z,2.20
2019-01-13T17:45:38.539Z,2.20
2019-01-13T17:48:19.210Z,2.20
2019-01-13T17:51:00.079Z,2.20
2019-01-13T17:53:41.538Z,2.30
2019-01-13T17:56:23.023Z,2.30
2019-01-13T17:59:04.670Z,2.20
2019-01-13T18:01:46.462Z,2.20
2019-01-13T18:04:27.948Z,2.30
2019-01-13T18:07:08.809Z,2.30
2019-01-13T18:09:50.005Z,2.30
2019-01-13T18:12:31.607Z,2.20
2019-01-13T18:15:12.734Z,2.30
2019-01-13T18:17:54.009Z,2.30
2019-01-13T18:20:35.794Z,2.30
2019-01-13T18:23:17.559Z,2.20
2019-01-13T18:25:59.646Z,2.20
2019-01-13T18:28:41.221Z,2.20
2019-01-13T18:31:23.153Z,2.30
2019-01-13T18:34:04.876Z,2.20
2019-01-13T18:36:45.746Z,2.20
2019-01-13T18:39:27.205Z,2.30
2019-01-13T18:42:08.320Z,2.30
2019-01-13T18:44:49.803Z,2.30
2019-01-13T18:47:31.535Z,2.30
2019-01-13T18:50:12.981Z,2.20
2019-01-13T18:52:54.062Z,2.20
2019-01-13T18:55:35.691Z,2.20
2019-01-13T18:58:17.545Z,2.20
2019-01-13T19:00:59.252Z,2.30
2019-01-13T19:03:40.623Z,2.30
2019-01-13T19:06:21.802Z,2.30
2019-01-13T19:09:01.871Z,2.30
2019-01-13T19:12:02.530Z,2.40
2019-01-13T19:14:44.215Z,2.40
2019-01-13T19:17:25.807Z,2.40
2019-01-13T19:20:07.223Z,2.30
2019-01-13T19:22:49.030Z,2.40
2019-01-13T19:25:29.709Z,2.40
2019-01-13T19:28:11.037Z,2.40
2019-01-13T19:30:50.559Z,2.40
2019-01-13T19:33:39.493Z,2.40
2019-01-13T19:36:20.192Z,2.40
2019-01-13T19:39:01.489Z,2.50
2019-01-13T19:41:43.028Z,2.50
2019-01-13T19:44:24.789Z,2.50
2019-01-13T19:47:05.946Z,2.50
2019-01-13T19:49:46.755Z,2.40
2019-01-13T19:52:28.286Z,2.40
2019-01-13T19:55:09.858Z,2.40
2019-01-13T19:57:51.815Z,2.30
2019-01-13T20:00:33.419Z,2.30
2019-01-13T20:03:15.018Z,2.30
2019-01-13T20:05:56.843Z,2.30
2019-01-13T20:08:37.909Z,2.20
2019-01-13T20:11:18.976Z,2.20
2019-01-13T20:14:00.587Z,2.20
2019-01-13T20:16:43.236Z,2.20
2019-01-13T20:19:24.730Z,2.30
2019-01-13T20:22:05.452Z,2.30
2019-01-13T20:24:47.363Z,2.20
2019-01-13T20:27:28.725Z,2.30
2019-01-13T20:30:10.185Z,2.30
2019-01-13T20:32:51.980Z,2.30
2019-01-13T20:35:33.904Z,2.30
2019-01-13T20:38:15.878Z,2.30
2019-01-13T20:40:56.805Z,2.30
2019-01-13T20:43:37.970Z,2.30
2019-01-13T20:46:18.964Z,2.30
2019-01-13T20:48:59.645Z,2.30
2019-01-13T20:51:40.957Z,2.30
2019-01-13T20:54:22.258Z,2.30
2019-01-13T20:57:03.993Z,2.30
2019-01-13T20:59:45.025Z,2.30
2019-01-13T21:02:25.875Z,2.30
2019-01-13T21:05:07.533Z,2.40
2019-01-13T21:07:49.251Z,2.40
2019-01-13T21:10:30.949Z,2.40
2019-01-13T21:13:12.741Z,2.40
2019-01-13T21:15:54.184Z,2.40
2019-01-13T21:18:35.853Z,2.40
2019-01-13T21:21:17.728Z,2.40
2019-01-13T21:23:59.041Z,2.40
2019-01-13T21:26:40.587Z,2.40
2019-01-13T21:29:22.676Z,2.40
2019-01-13T21:32:03.687Z,2.40
2019-01-13T21:34:45.147Z,2.50
2019-01-13T21:37:26.766Z,2.40
2019-01-13T21:40:08.901Z,2.40
2019-01-13T21:42:50.304Z,2.40
2019-01-13T21:45:31.537Z,2.40
2019-01-13T21:48:13.868Z,2.40
2019-01-13T21:51:03.683Z,2.40
2019-01-13T21:53:45.265Z,2.40
2019-01-13T21:56:26.367Z,2.40
2019-01-13T21:59:06.127Z,2.50
2019-01-13T22:04:54.217Z,2.50
2019-01-13T22:07:35.804Z,2.40
2019-01-13T22:10:17.421Z,2.40
2019-01-13T22:12:58.824Z,2.40
2019-01-13T22:15:39.899Z,2.40
2019-01-13T22:18:21.533Z,2.40
2019-01-13T22:21:03.078Z,2.40
2019-01-13T22:23:44.931Z,2.40
2019-01-13T22:26:26.419Z,2.30
2019-01-13T22:29:07.832Z,2.30
2019-01-13T22:31:48.986Z,2.30
2019-01-13T22:34:30.370Z,2.30
2019-01-13T22:37:11.661Z,2.30
2019-01-13T22:39:52.284Z,2.20
2019-01-13T22:42:32.334Z,2.20
2019-01-13T22:45:13.899Z,2.20
2019-01-13T22:47:54.945Z,2.20
2019-01-13T22:50:34.672Z,2.20
2019-01-13T22:53:15.949Z,2.10
2019-01-13T22:55:56.642Z,2.10
2019-01-13T22:58:37.299Z,2.10
2019-01-13T23:01:25.019Z,2.10
2019-01-13T23:04:06.403Z,2.10
2019-01-13T23:06:47.632Z,2.20
2019-01-13T23:09:28.812Z,2.10
2019-01-13T23:12:08.464Z,2.20
2019-01-13T23:14:57.150Z,2.20
2019-01-13T23:17:38.464Z,2.20
2019-01-13T23:20:20.125Z,2.20
2019-01-13T23:23:01.521Z,2.20
2019-01-13T23:25:42.476Z,2.20
2019-01-13T23:28:23.253Z,2.20
2019-01-13T23:31:02.609Z,2.20
2019-01-13T23:33:43.736Z,2.20
2019-01-13T23:36:24.596Z,2.20
2019-01-13T23:39:07.233Z,2.10
2019-01-13T23:41:48.449Z,2.10
2019-01-13T23:44:29.770Z,2.10
2019-01-13T23:47:11.179Z,2.10
2019-01-13T23:49:51.886Z,2.10
2019-01-13T23:52:32.834Z,2.10
2019-01-13T23:55:12.386Z,2.10
2019-01-13T23:57:51.973Z,2.10
